Time;durP1;ratioP1;P1;durP2;ratioP2;P2;SDS_P1;SDS_P2;PMS_P1;PMS_P2;Temp;Humidity;BMP_temperature;BMP_pressure;BME280_temperature;BME280_humidity;BME280_pressure;Samples;Min_cycle;Max_cycle;Signal;HPM_P1;HPM_P2
2022/08/25 00:01:42;;;;;;;1999.90;999.90;;;19.90;99.90;;;;;;5058199;28;20179;-84
2022/08/25 00:04:10;;;;;;;1999.90;999.90;;;19.90;99.90;;;;;;5050716;28;20103;-84
2022/08/25 00:06:38;;;;;;;1999.90;999.90;;;19.80;99.90;;;;;;5051629;28;20040;-84
2022/08/25 00:09:05;;;;;;;1999.90;999.90;;;19.80;99.90;;;;;;5050628;28;20405;-84
2022/08/25 00:11:33;;;;;;;1999.90;999.90;;;19.80;99.90;;;;;;5051328;28;20076;-84
2022/08/25 00:14:03;;;;;;;1999.90;999.90;;;19.80;99.90;;;;;;5051926;28;20048;-84
2022/08/25 00:16:31;;;;;;;1999.90;999.90;;;19.70;99.90;;;;;;5049167;28;20052;-84
2022/08/25 00:19:00;;;;;;;1999.90;999.90;;;19.70;99.90;;;;;;5051240;28;20049;-84
2022/08/25 00:21:26;;;;;;;1966.38;999.90;;;19.70;99.90;;;;;;5052278;28;20501;-84
2022/08/25 00:23:52;;;;;;;1999.90;999.90;;;19.70;99.90;;;;;;5049832;28;20378;-84
2022/08/25 00:26:19;;;;;;;1947.50;999.90;;;19.70;99.90;;;;;;5049891;28;20040;-84
2022/08/25 00:28:45;;;;;;;1999.90;999.90;;;19.60;99.90;;;;;;5056037;28;20045;-84
2022/08/25 00:31:13;;;;;;;1845.25;999.90;;;19.60;99.90;;;;;;5057295;28;20071;-84
2022/08/25 00:33:40;;;;;;;1999.90;999.90;;;19.60;99.90;;;;;;5051267;28;20375;-84
2022/08/25 00:36:05;;;;;;;1994.10;999.90;;;19.50;99.90;;;;;;5033855;28;20107;-84
2022/08/25 00:38:31;;;;;;;1999.90;999.90;;;19.60;99.90;;;;;;5037152;28;20053;-84
2022/08/25 00:41:07;;;;;;;1999.90;999.90;;;19.50;99.90;;;;;;5049589;28;20049;-84
2022/08/25 00:43:46;;;;;;;1999.90;999.90;;;19.50;99.90;;;;;;5050806;28;20075;-84
2022/08/25 00:46:17;;;;;;;1999.90;999.90;;;19.50;99.90;;;;;;5050685;28;20043;-85
2022/08/25 00:48:45;;;;;;;1999.90;999.90;;;19.40;99.90;;;;;;5050255;28;20502;-84
2022/08/25 00:51:15;;;;;;;1999.90;997.63;;;19.40;99.90;;;;;;5049292;28;20049;-84
2022/08/25 00:53:42;;;;;;;1999.90;999.90;;;19.80;99.90;;;;;;5054363;28;20601;-84
2022/08/25 00:56:09;;;;;;;1999.90;888.35;;;19.40;99.90;;;;;;5052977;28;20044;-84
2022/08/25 00:58:36;;;;;;;1999.90;999.90;;;19.40;99.90;;;;;;5034950;28;20051;-84
2022/08/25 01:01:02;;;;;;;1999.90;999.90;;;20.60;99.90;;;;;;5051249;28;20049;-84
2022/08/25 01:03:32;;;;;;;1999.90;999.90;;;19.40;99.90;;;;;;5047989;28;20084;-84
2022/08/25 01:05:59;;;;;;;1999.90;999.90;;;19.30;99.90;;;;;;5054296;28;20053;-84
2022/08/25 01:08:28;;;;;;;1999.90;949.67;;;19.30;99.90;;;;;;5042225;28;20171;-84
2022/08/25 01:10:55;;;;;;;1999.90;999.90;;;18.10;99.90;;;;;;5069072;28;20131;-84
2022/08/25 01:13:34;;;;;;;1999.90;715.60;;;19.30;99.90;;;;;;5052276;28;20049;-84
2022/08/25 01:16:01;;;;;;;1999.90;999.90;;;19.30;99.90;;;;;;5055740;28;20570;-83
2022/08/25 01:18:27;;;;;;;1999.90;942.97;;;19.30;99.90;;;;;;5034091;28;20068;-84
2022/08/25 01:20:55;;;;;;;1999.90;999.90;;;19.30;99.90;;;;;;5053434;28;20060;-84
2022/08/25 01:23:22;;;;;;;1999.90;820.05;;;19.30;99.90;;;;;;5054228;28;20059;-84
2022/08/25 01:25:52;;;;;;;1999.90;714.22;;;19.20;99.90;;;;;;5053572;28;20045;-84
2022/08/25 01:28:19;;;;;;;1777.88;800.47;;;19.20;99.90;;;;;;5048119;28;20045;-84
2022/08/25 01:30:45;;;;;;;1999.90;999.90;;;19.10;99.90;;;;;;5055337;28;20337;-84
2022/08/25 01:33:11;;;;;;;1999.90;999.90;;;19.10;99.90;;;;;;5054211;28;20045;-84
2022/08/25 01:35:39;;;;;;;1999.90;999.90;;;19.10;99.90;;;;;;5053389;28;20052;-85
2022/08/25 01:38:06;;;;;;;1937.03;532.90;;;19.10;99.90;;;;;;5056136;28;20102;-84
2022/08/25 01:40:33;;;;;;;1999.90;970.55;;;19.10;99.90;;;;;;5051375;28;20081;-84
2022/08/25 01:43:14;;;;;;;1999.90;999.90;;;19.10;99.90;;;;;;5052070;28;20048;-84
2022/08/25 01:45:45;;;;;;;1999.90;999.90;;;19.00;99.90;;;;;;5053568;28;20084;-83
2022/08/25 01:48:12;;;;;;;1999.90;999.90;;;19.00;99.90;;;;;;5052782;28;20045;-84
2022/08/25 01:50:39;;;;;;;1999.90;999.90;;;19.00;99.90;;;;;;5055100;28;20087;-83
2022/08/25 01:53:21;;;;;;;1999.90;999.90;;;19.00;99.90;;;;;;5056386;28;20524;-84
2022/08/25 01:56:00;;;;;;;1691.57;917.15;;;19.00;99.90;;;;;;5053460;28;20119;-84
2022/08/25 01:58:37;;;;;;;1480.47;999.33;;;19.00;99.90;;;;;;5056222;28;20048;-84
2022/08/25 02:01:07;;;;;;;1999.90;999.90;;;19.00;99.90;;;;;;5044386;28;20128;-84
2022/08/25 02:03:37;;;;;;;1999.90;999.90;;;19.00;99.90;;;;;;5048341;28;20128;-84
2022/08/25 02:06:04;;;;;;;1999.90;999.90;;;19.00;99.90;;;;;;5042496;28;20057;-84
2022/08/25 02:08:31;;;;;;;1999.90;999.90;;;19.00;99.90;;;;;;5054126;28;20056;-84
2022/08/25 02:10:56;;;;;;;1083.05;609.78;;;18.90;99.90;;;;;;5053021;28;20118;-84
2022/08/25 02:13:22;;;;;;;1999.90;999.90;;;18.90;99.90;;;;;;5052535;28;20076;-84
2022/08/25 02:15:51;;;;;;;1999.90;999.90;;;18.90;99.90;;;;;;5049179;28;20069;-84
2022/08/25 02:18:18;;;;;;;1477.43;999.90;;;18.90;99.90;;;;;;5053906;28;20045;-83
2022/08/25 02:20:44;;;;;;;1999.90;999.90;;;18.90;99.90;;;;;;5051509;28;20056;-84
2022/08/25 02:23:10;;;;;;;1621.53;999.90;;;18.90;99.90;;;;;;5035396;28;20049;-84
2022/08/25 02:25:38;;;;;;;1705.97;999.90;;;18.90;99.90;;;;;;5051204;28;20045;-84
2022/08/25 02:28:05;;;;;;;1909.10;999.90;;;18.90;99.90;;;;;;5052405;28;20048;-84
2022/08/25 02:30:32;;;;;;;1997.25;999.90;;;18.80;99.90;;;;;;5054132;28;20052;-83
2022/08/25 02:32:57;;;;;;;1999.90;999.90;;;18.90;99.90;;;;;;5044490;28;20441;-84
2022/08/25 02:35:23;;;;;;;1793.47;999.90;;;18.90;99.90;;;;;;5046409;28;20041;-84
2022/08/25 02:37:51;;;;;;;1440.45;999.90;;;18.90;99.90;;;;;;5032326;28;20037;-84
2022/08/25 02:40:17;;;;;;;;;;;18.90;99.90;;;;;;5053620;28;20567;-84
2022/08/25 02:42:43;;;;;;;1281.32;977.92;;;18.80;99.90;;;;;;5052023;28;19921;-84
2022/08/25 02:45:09;;;;;;;1102.43;974.10;;;18.90;99.90;;;;;;5051750;28;20041;-84
2022/08/25 02:47:38;;;;;;;1822.65;984.63;;;18.90;99.90;;;;;;5052028;28;20041;-85
2022/08/25 02:50:05;;;;;;;1999.90;999.90;;;18.90;99.90;;;;;;5049617;28;20455;-84
2022/08/25 02:52:31;;;;;;;1145.53;999.90;;;18.90;99.90;;;;;;5053500;28;20095;-84
2022/08/25 02:54:57;;;;;;;1224.80;971.47;;;18.90;99.90;;;;;;5037932;28;20044;-84
2022/08/25 02:57:23;;;;;;;1999.90;999.90;;;18.90;99.90;;;;;;5050946;28;20045;-83
2022/08/25 02:59:50;;;;;;;1484.15;999.90;;;18.90;99.90;;;;;;5052213;28;20037;-84
2022/08/25 03:02:16;;;;;;;1636.67;999.90;;;18.90;99.90;;;;;;5053764;28;20044;-84
2022/08/25 03:04:42;;;;;;;1795.93;858.95;;;18.90;99.90;;;;;;5052088;28;20371;-83
2022/08/25 03:07:10;;;;;;;1489.22;999.90;;;18.90;99.90;;;;;;5033077;28;20076;-84
2022/08/25 03:09:36;;;;;;;;;;;18.90;99.90;;;;;;5054163;28;20110;-84
2022/08/25 03:12:02;;;;;;;1658.60;999.90;;;18.90;99.90;;;;;;5053757;28;20395;-84
2022/08/25 03:14:29;;;;;;;1999.90;999.90;;;18.90;99.90;;;;;;5051859;28;20493;-84
2022/08/25 03:16:55;;;;;;;1574.85;934.03;;;18.90;99.90;;;;;;5016878;28;20053;-84
2022/08/25 03:19:21;;;;;;;1999.90;999.90;;;18.30;99.90;;;;;;5030538;28;20061;-84
2022/08/25 03:21:47;;;;;;;1999.90;999.90;;;18.80;99.90;;;;;;5031436;28;20057;-83
2022/08/25 03:24:13;;;;;;;1999.90;999.90;;;18.80;99.90;;;;;;5050013;28;20045;-83
2022/08/25 03:26:54;;;;;;;1999.90;999.90;;;18.80;99.90;;;;;;5052168;28;20393;-83
2022/08/25 03:29:26;;;;;;;1999.90;999.90;;;18.80;99.90;;;;;;5050323;28;20049;-83
2022/08/25 03:31:53;;;;;;;1999.90;999.90;;;18.70;99.90;;;;;;5052032;28;20580;-84
2022/08/25 03:34:21;;;;;;;1805.00;851.58;;;18.70;99.90;;;;;;5050376;28;20049;-84
2022/08/25 03:36:51;;;;;;;1999.90;999.90;;;18.70;99.90;;;;;;5051052;28;20392;-84
2022/08/25 03:39:19;;;;;;;1999.90;999.90;;;18.60;99.90;;;;;;5053754;28;20041;-84
2022/08/25 03:41:46;;;;;;;1999.90;999.90;;;18.60;99.90;;;;;;5031076;28;20049;-84
2022/08/25 03:44:12;;;;;;;1999.90;999.90;;;18.50;99.90;;;;;;5051740;28;20482;-84
2022/08/25 03:46:44;;;;;;;1999.90;999.90;;;18.50;99.90;;;;;;5062029;28;20072;-84
2022/08/25 03:49:13;;;;;;;1645.80;999.90;;;18.50;99.90;;;;;;5052127;28;20044;-83
2022/08/25 03:51:46;;;;;;;1869.72;968.67;;;18.40;99.90;;;;;;5053915;28;20037;-82
2022/08/25 03:54:17;;;;;;;1999.90;999.90;;;18.40;99.90;;;;;;5057220;28;20051;-83
2022/08/25 03:56:43;;;;;;;1999.90;999.90;;;18.40;99.90;;;;;;5050331;28;20049;-84
2022/08/25 03:59:09;;;;;;;1999.90;999.90;;;18.40;99.90;;;;;;5054943;28;20465;-84
2022/08/25 04:01:36;;;;;;;1999.90;999.90;;;18.40;99.90;;;;;;5057833;28;20075;-84
2022/08/25 04:04:02;;;;;;;1999.90;999.90;;;18.30;99.90;;;;;;5056210;28;20084;-83
2022/08/25 04:06:30;;;;;;;1576.23;774.93;;;18.30;99.90;;;;;;5053419;28;20179;-83
2022/08/25 04:08:57;;;;;;;1999.90;999.90;;;18.30;99.90;;;;;;5049215;28;20048;-84
2022/08/25 04:11:24;;;;;;;1743.80;980.85;;;18.30;99.90;;;;;;5054722;28;20040;-84
2022/08/25 04:13:51;;;;;;;1483.60;999.90;;;18.20;99.90;;;;;;5053144;28;20080;-84
2022/08/25 04:16:21;;;;;;;1999.90;999.90;;;18.20;99.90;;;;;;5042104;28;20048;-84
2022/08/25 04:18:48;;;;;;;1999.90;999.90;;;18.20;99.90;;;;;;5037553;28;20521;-84
2022/08/25 04:21:16;;;;;;;1999.90;999.90;;;18.20;99.90;;;;;;5050479;28;20045;-84
2022/08/25 04:23:44;;;;;;;1999.90;999.90;;;18.10;99.90;;;;;;5051484;28;20045;-85
2022/08/25 04:26:14;;;;;;;;;;;18.10;99.90;;;;;;5055172;28;20124;-85
2022/08/25 04:28:40;;;;;;;1655.13;681.38;;;18.10;99.90;;;;;;5035974;28;19927;-85
2022/08/25 04:31:11;;;;;;;1575.63;606.85;;;18.10;99.90;;;;;;5048646;28;20586;-85
2022/08/25 04:33:37;;;;;;;1999.90;999.90;;;18.00;99.90;;;;;;5061245;28;20100;-85
2022/08/25 04:36:05;;;;;;;1999.90;999.90;;;18.00;99.90;;;;;;5055901;28;20056;-85
2022/08/25 04:38:31;;;;;;;1999.90;999.90;;;18.00;99.90;;;;;;5040048;28;20079;-85
2022/08/25 04:40:59;;;;;;;1999.90;999.90;;;18.00;99.90;;;;;;5051674;28;20045;-86
2022/08/25 04:43:25;;;;;;;;;;;18.00;99.90;;;;;;5056890;28;20040;-86
2022/08/25 04:45:52;;;;;;;1999.90;999.90;;;18.00;99.90;;;;;;5053382;28;19925;-85
2022/08/25 04:48:19;;;;;;;1999.90;999.90;;;18.00;99.90;;;;;;5036366;28;20495;-85
2022/08/25 04:50:45;;;;;;;1999.90;999.90;;;18.00;99.90;;;;;;5049696;28;20037;-86
2022/08/25 04:53:11;;;;;;;1999.90;999.90;;;18.00;99.90;;;;;;5053905;28;20116;-85
2022/08/25 04:55:45;;;;;;;1999.90;999.90;;;17.90;99.90;;;;;;5057449;28;20063;-85
2022/08/25 04:58:11;;;;;;;1999.90;999.90;;;18.00;99.90;;;;;;5060666;28;20463;-85
2022/08/25 05:00:38;;;;;;;1999.90;999.90;;;17.90;99.90;;;;;;5051512;28;20043;-85
2022/08/25 05:03:04;;;;;;;1741.55;917.03;;;18.00;99.90;;;;;;5050805;28;20116;-85
2022/08/25 05:05:30;;;;;;;1999.90;999.90;;;18.00;99.90;;;;;;5051443;28;20068;-85
2022/08/25 05:07:56;;;;;;;1155.10;960.75;;;17.20;99.90;;;;;;5029400;28;20045;-85
2022/08/25 05:10:23;;;;;;;1719.47;464.00;;;18.00;99.90;;;;;;5052750;28;20037;-85
2022/08/25 05:12:49;;;;;;;1657.97;793.35;;;18.00;99.90;;;;;;5053367;28;20449;-86
2022/08/25 05:17:59;;;;;;;1999.90;663.17;;;18.10;99.90;;;;;;5048228;28;20110;-85
2022/08/25 05:20:25;;;;;;;1999.90;999.90;;;17.60;99.90;;;;;;5054176;28;20057;-85
2022/08/25 05:22:51;;;;;;;1999.90;999.90;;;18.10;99.90;;;;;;5050447;28;20401;-86
2022/08/25 05:25:17;;;;;;;1999.90;999.90;;;18.10;99.90;;;;;;5053207;28;20037;-86
2022/08/25 05:27:43;;;;;;;1999.90;999.90;;;18.10;99.90;;;;;;5053156;28;20052;-85
2022/08/25 05:30:10;;;;;;;1999.90;999.90;;;18.20;99.90;;;;;;5036453;28;20042;-85
2022/08/25 05:32:37;;;;;;;1783.03;629.88;;;18.10;99.90;;;;;;5060442;28;20069;-85
2022/08/25 05:35:04;;;;;;;1565.50;784.28;;;18.20;99.90;;;;;;5052086;28;20105;-85
2022/08/25 05:37:30;;;;;;;1305.13;463.98;;;18.20;99.90;;;;;;5051961;28;20053;-86
2022/08/25 05:39:56;;;;;;;1663.80;768.28;;;18.20;99.90;;;;;;5034292;28;20033;-86
2022/08/25 05:42:22;;;;;;;1999.90;999.90;;;18.30;99.90;;;;;;5017067;28;20045;-86
2022/08/25 05:44:48;;;;;;;1893.25;838.80;;;18.30;99.90;;;;;;5050710;28;20389;-86
2022/08/25 05:47:14;;;;;;;1999.90;858.38;;;18.30;99.90;;;;;;5052824;28;20048;-86
2022/08/25 05:49:40;;;;;;;1999.90;994.28;;;18.30;99.90;;;;;;5057427;28;20233;-86
2022/08/25 05:52:08;;;;;;;1999.90;999.90;;;18.40;99.90;;;;;;5058040;28;20082;-85
2022/08/25 05:54:34;;;;;;;1802.78;868.25;;;18.40;99.90;;;;;;5055120;28;20070;-86
2022/08/25 05:57:00;;;;;;;1075.45;956.13;;;18.40;99.90;;;;;;5048944;28;20444;-85
2022/08/25 05:59:25;;;;;;;1999.90;999.90;;;18.40;99.90;;;;;;5038086;28;20082;-86
2022/08/25 06:04:36;;;;;;;1999.90;999.90;;;17.20;99.90;;;;;;5053165;28;20049;-86
2022/08/25 06:07:02;;;;;;;1999.90;999.90;;;18.60;99.90;;;;;;5052227;28;20055;-86
2022/08/25 06:09:28;;;;;;;953.70;849.00;;;17.40;99.90;;;;;;5028537;28;20084;-86
2022/08/25 06:11:53;;;;;;;1085.15;887.25;;;18.80;99.90;;;;;;5051249;28;20060;-86
2022/08/25 06:14:19;;;;;;;1999.90;999.90;;;18.90;99.90;;;;;;5018060;28;20052;-86
2022/08/25 06:16:47;;;;;;;1999.90;999.90;;;19.00;99.90;;;;;;5047164;28;20045;-86
2022/08/25 06:19:13;;;;;;;;;;;20.30;99.90;;;;;;5032659;28;20057;-86
2022/08/25 06:21:39;;;;;;;1377.28;372.85;;;19.10;99.90;;;;;;5033879;28;20035;-86
2022/08/25 06:24:06;;;;;;;1711.18;799.85;;;19.20;99.90;;;;;;5050862;28;20064;-86
2022/08/25 06:26:33;;;;;;;1999.90;999.90;;;19.20;99.90;;;;;;5050752;28;20051;-85
2022/08/25 06:28:59;;;;;;;1730.53;879.17;;;19.40;99.90;;;;;;5049081;28;20123;-85
2022/08/25 06:31:25;;;;;;;1771.53;863.05;;;19.50;99.90;;;;;;5047346;28;20124;-85
2022/08/25 06:33:51;;;;;;;1999.90;999.90;;;19.60;99.90;;;;;;5051741;28;20107;-86
2022/08/25 06:36:18;;;;;;;1999.90;836.63;;;19.60;99.90;;;;;;5051947;28;20669;-87
2022/08/25 06:38:44;;;;;;;1951.45;999.90;;;19.70;99.90;;;;;;5019157;28;20049;-86
2022/08/25 06:41:11;;;;;;;956.33;372.40;;;19.80;99.90;;;;;;5050358;28;20044;-86
2022/08/25 06:43:39;;;;;;;1724.03;994.37;;;19.80;99.90;;;;;;5050003;28;20081;-86
2022/08/25 06:46:18;;;;;;;1999.90;995.30;;;19.70;99.90;;;;;;5034075;28;20044;-85
2022/08/25 06:48:44;;;;;;;1835.57;826.55;;;19.40;99.90;;;;;;5053070;28;20055;-85
2022/08/25 06:51:13;;;;;;;1371.65;515.97;;;19.90;99.90;;;;;;5040116;28;20044;-85
2022/08/25 06:53:39;;;;;;;1999.90;999.90;;;20.00;99.90;;;;;;5051079;28;20080;-85
2022/08/25 06:56:04;;;;;;;1999.90;999.90;;;20.20;99.90;;;;;;5014675;28;20075;-86
2022/08/25 06:58:32;;;;;;;1654.50;886.42;;;20.50;99.90;;;;;;5062036;28;20049;-87
2022/08/25 07:01:11;;;;;;;;;;;20.80;99.90;;;;;;5045028;28;20084;-86
2022/08/25 07:03:37;;;;;;;1381.50;988.20;;;20.90;99.90;;;;;;5049249;28;19936;-85
2022/08/25 07:06:06;;;;;;;1999.90;999.90;;;21.10;99.90;;;;;;5045944;28;20396;-86
2022/08/25 07:08:32;;;;;;;1999.90;999.90;;;21.10;99.90;;;;;;5048174;28;20489;-87
2022/08/25 07:11:04;;;;;;;1473.47;759.42;;;21.30;99.90;;;;;;5051102;28;20080;-86
2022/08/25 07:13:30;;;;;;;1330.10;913.80;;;21.40;99.90;;;;;;5032616;28;20048;-86
2022/08/25 07:15:56;;;;;;;1263.85;909.72;;;21.50;99.90;;;;;;5030103;28;20510;-86
2022/08/25 07:18:22;;;;;;;1498.28;961.40;;;21.60;99.90;;;;;;5050331;28;20060;-86
2022/08/25 07:20:50;;;;;;;1109.15;969.00;;;21.80;99.90;;;;;;5034407;28;20144;-86
2022/08/25 07:23:17;;;;;;;1099.88;942.05;;;21.90;99.90;;;;;;5034582;28;20060;-85
2022/08/25 07:25:43;;;;;;;1064.68;944.42;;;22.00;99.90;;;;;;5049614;28;20045;-86
2022/08/25 07:28:09;;;;;;;1257.20;925.30;;;22.10;99.90;;;;;;5048877;28;20053;-85
2022/08/25 07:30:37;;;;;;;1335.25;955.40;;;22.20;99.90;;;;;;5033250;28;20084;-86
2022/08/25 07:33:03;;;;;;;1013.67;914.55;;;23.00;99.90;;;;;;5050589;28;20044;-86
2022/08/25 07:35:31;;;;;;;925.85;844.28;;;24.70;92.50;;;;;;5048537;28;20105;-85
2022/08/25 07:37:58;;;;;;;1344.45;819.40;;;26.20;27.20;;;;;;5034217;28;20502;-85
2022/08/25 07:40:35;;;;;;;1234.87;849.03;;;27.40;1.00;;;;;;5049874;28;20040;-85
2022/08/25 07:43:06;;;;;;;1999.90;999.90;;;28.40;1.00;;;;;;5052282;28;20095;-85
2022/08/25 07:45:35;;;;;;;1999.90;999.90;;;29.10;1.00;;;;;;5051851;28;20056;-85
2022/08/25 07:48:08;;;;;;;1999.90;999.90;;;29.60;1.00;;;;;;5051518;28;20048;-85
2022/08/25 07:50:41;;;;;;;1999.90;999.90;;;30.30;1.00;;;;;;5051547;28;20045;-85
2022/08/25 07:53:07;;;;;;;1999.90;999.90;;;31.30;1.00;;;;;;5052140;28;20055;-86
2022/08/25 07:55:35;;;;;;;1999.90;999.90;;;30.80;1.00;;;;;;5049024;28;20045;-86
2022/08/25 07:58:05;;;;;;;1999.90;999.90;;;31.30;1.00;;;;;;5049526;28;20045;-86
2022/08/25 08:00:35;;;;;;;1999.90;999.90;;;31.80;1.00;;;;;;5051100;28;20052;-85
2022/08/25 08:03:04;;;;;;;1999.90;999.90;;;32.70;1.00;;;;;;5051440;28;20045;-85
2022/08/25 08:05:33;;;;;;;1999.90;999.90;;;32.80;1.00;;;;;;5051451;28;20075;-85
2022/08/25 08:08:02;;;;;;;1999.90;999.90;;;33.00;1.00;;;;;;5033392;28;20449;-85
2022/08/25 08:10:27;;;;;;;1999.90;999.90;;;33.00;1.00;;;;;;5032976;28;20597;-85
2022/08/25 08:12:53;;;;;;;1999.90;999.90;;;32.90;1.00;;;;;;5050765;28;20057;-86
2022/08/25 08:15:19;;;;;;;1999.90;999.90;;;33.00;1.00;;;;;;5032954;28;20037;-86
2022/08/25 08:17:45;;;;;;;1999.90;999.90;;;33.10;1.00;;;;;;5032831;28;20095;-85
2022/08/25 08:20:12;;;;;;;1999.90;999.90;;;33.20;1.00;;;;;;5012901;28;20506;-86
2022/08/25 08:22:40;;;;;;;1999.90;999.90;;;33.40;1.00;;;;;;5046212;28;20103;-85
2022/08/25 08:25:10;;;;;;;1999.90;999.90;;;33.80;1.00;;;;;;5049541;28;20067;-86
2022/08/25 08:27:36;;;;;;;1999.90;999.90;;;33.60;1.00;;;;;;5049620;28;20040;-86
2022/08/25 08:30:05;;;;;;;1999.90;999.90;;;34.30;1.00;;;;;;5050970;28;20063;-84
2022/08/25 08:32:34;;;;;;;1999.90;999.90;;;34.70;1.00;;;;;;5050012;28;20432;-86
2022/08/25 08:35:00;;;;;;;1999.90;999.90;;;34.40;1.00;;;;;;5050130;28;20049;-85
2022/08/25 08:37:26;;;;;;;1999.90;999.90;;;35.10;1.00;;;;;;5031743;28;20079;-86
2022/08/25 08:39:52;;;;;;;1999.90;999.90;;;34.20;1.00;;;;;;5022586;28;20044;-86
2022/08/25 08:42:45;;;;;;;1999.90;999.90;;;35.40;1.00;;;;;;5047606;28;20045;-86
2022/08/25 08:45:32;;;;;;;1999.90;999.90;;;36.00;99.90;;;;;;5031348;28;20461;-87
2022/08/25 08:48:09;;;;;;;1999.90;999.90;;;36.40;99.90;;;;;;5040922;28;20131;-86
2022/08/25 08:50:46;;;;;;;1999.90;999.90;;;36.60;99.90;;;;;;5045206;28;20381;-86
2022/08/25 08:53:18;;;;;;;1999.90;999.90;;;36.80;99.90;;;;;;5032006;28;20487;-87
2022/08/25 08:55:48;;;;;;;1999.90;999.90;;;37.60;99.90;;;;;;5049153;28;20044;-86
2022/08/25 08:58:23;;;;;;;1999.90;999.90;;;37.40;99.90;;;;;;5046081;28;20489;-86
2022/08/25 09:00:54;;;;;;;1999.90;999.90;;;37.10;99.90;;;;;;5021142;28;20037;-86
2022/08/25 09:03:40;;;;;;;1999.90;999.90;;;37.60;99.90;;;;;;5048435;28;20112;-87
2022/08/25 09:06:37;;;;;;;1999.90;999.90;;;38.20;99.90;;;;;;5033428;28;20048;-86
2022/08/25 09:09:04;;;;;;;1999.90;999.90;;;37.70;99.90;;;;;;5030373;28;20053;-85
2022/08/25 09:11:53;;;;;;;1999.90;999.90;;;37.70;99.90;;;;;;5047750;28;20258;-87
2022/08/25 09:14:44;;;;;;;1213.35;671.30;;;37.30;99.90;;;;;;5047825;28;20508;-86
2022/08/25 09:17:22;;;;;;;1999.90;999.90;;;37.20;99.90;;;;;;5049187;28;20076;-86
2022/08/25 09:20:28;;;;;;;1999.90;999.90;;;37.50;99.90;;;;;;5048093;28;20068;-86
2022/08/25 09:23:18;;;;;;;1999.90;999.90;;;38.30;99.90;;;;;;5032756;28;20045;-86
2022/08/25 09:26:16;;;;;;;1999.90;999.90;;;39.30;99.90;;;;;;5033536;28;20052;-87
2022/08/25 09:28:59;;;;;;;1999.90;999.90;;;39.80;99.90;;;;;;5043839;28;20414;-85
2022/08/25 09:31:40;;;;;;;1999.90;999.90;;;39.40;99.90;;;;;;5053681;28;20055;-86
2022/08/25 09:34:15;;;;;;;1999.90;999.90;;;39.00;99.90;;;;;;5053849;28;20508;-85
2022/08/25 09:36:41;;;;;;;1999.90;999.90;;;39.40;99.90;;;;;;5053987;28;20132;-87
2022/08/25 09:39:07;;;;;;;1999.90;999.90;;;39.50;99.90;;;;;;5033009;28;20037;-86
2022/08/25 09:41:45;;;;;;;1999.90;999.90;;;38.30;99.90;;;;;;5050370;28;20044;-86
2022/08/25 09:44:40;;;;;;;1999.90;999.90;;;38.60;99.90;;;;;;5053617;28;20124;-86
2022/08/25 09:47:26;;;;;;;1999.90;999.90;;;38.40;99.90;;;;;;5049741;28;20101;-86
2022/08/25 09:50:01;;;;;;;1999.90;999.90;;;38.80;99.90;;;;;;5033695;28;20452;-86
2022/08/25 09:52:36;;;;;;;1580.00;813.92;;;38.30;99.90;;;;;;5052798;28;20084;-85
2022/08/25 09:55:05;;;;;;;1999.90;999.90;;;38.40;99.90;;;;;;5051852;28;20048;-84
2022/08/25 09:57:43;;;;;;;1999.90;999.90;;;38.40;99.90;;;;;;5052675;28;20532;-85
2022/08/25 10:00:13;;;;;;;1999.90;999.90;;;37.90;99.90;;;;;;5032838;28;20426;-86
2022/08/25 10:02:39;;;;;;;1999.90;999.90;;;38.00;99.90;;;;;;5049667;28;20493;-84
2022/08/25 10:05:21;;;;;;;1999.90;999.90;;;38.20;99.90;;;;;;5051513;28;20036;-84
2022/08/25 10:07:53;;;;;;;1999.90;999.90;;;38.60;99.90;;;;;;5052414;28;20044;-82
2022/08/25 10:10:33;;;;;;;1999.90;999.90;;;38.20;99.90;;;;;;5050117;28;20045;-84
2022/08/25 10:13:02;;;;;;;1999.90;999.90;;;38.50;99.90;;;;;;5052326;28;20494;-83
2022/08/25 10:15:34;;;;;;;1999.90;999.90;;;39.00;99.90;;;;;;5053882;28;20060;-83
2022/08/25 10:18:24;;;;;;;1999.90;999.90;;;38.90;99.90;;;;;;5039224;28;20049;-84
2022/08/25 10:21:03;;;;;;;1999.90;999.90;;;39.00;99.90;;;;;;5049230;28;20053;-83
2022/08/25 10:23:31;;;;;;;1999.90;999.90;;;39.50;99.90;;;;;;5035367;28;20059;-84
2022/08/25 10:26:02;;;;;;;1999.90;999.90;;;39.10;99.90;;;;;;5051977;28;20500;-83
2022/08/25 10:28:32;;;;;;;1999.90;999.90;;;39.50;99.90;;;;;;5052088;28;20053;-82
2022/08/25 10:31:22;;;;;;;1999.90;999.90;;;39.30;99.90;;;;;;5051238;28;20068;-83
2022/08/25 10:33:50;;;;;;;1999.90;999.90;;;39.20;99.90;;;;;;5052923;28;20393;-83
2022/08/25 10:36:54;;;;;;;1999.90;999.90;;;39.30;99.90;;;;;;5053040;28;20102;-84
2022/08/25 10:39:40;;;;;;;1999.90;999.90;;;38.80;99.90;;;;;;5024742;28;20087;-84
2022/08/25 10:42:28;;;;;;;1999.90;999.90;;;38.90;99.90;;;;;;5051610;28;20041;-84
2022/08/25 10:48:05;;;;;;;1999.90;999.90;;;39.90;99.90;;;;;;5052750;28;19920;-83
2022/08/25 10:50:43;;;;;;;1999.90;999.90;;;39.60;99.90;;;;;;5043780;28;20504;-84
2022/08/25 10:53:41;;;;;;;1999.90;999.90;;;40.70;99.90;;;;;;5039567;28;20048;-85
2022/08/25 10:56:11;;;;;;;1999.90;999.90;;;41.20;99.90;;;;;;5042513;28;20045;-82
2022/08/25 10:59:03;;;;;;;1999.90;999.90;;;41.10;99.90;;;;;;5050623;28;20124;-83
2022/08/25 11:01:37;;;;;;;1999.90;999.90;;;40.70;99.90;;;;;;5050633;28;20124;-85
2022/08/25 11:04:20;;;;;;;1999.90;999.90;;;40.70;99.90;;;;;;5052171;28;20076;-85
2022/08/25 11:07:06;;;;;;;1999.90;999.90;;;41.50;99.90;;;;;;5054026;28;20045;-85
2022/08/25 11:09:38;;;;;;;1999.90;999.90;;;41.80;99.90;;;;;;5056901;28;20041;-85
2022/08/25 11:12:14;;;;;;;1999.90;999.90;;;41.90;99.90;;;;;;5049561;28;20041;-85
2022/08/25 11:14:48;;;;;;;1999.90;999.90;;;41.60;99.90;;;;;;5032824;28;20106;-85
2022/08/25 11:17:24;;;;;;;1999.90;999.90;;;41.80;99.90;;;;;;5050223;28;20127;-83
2022/08/25 11:20:02;;;;;;;1999.90;999.90;;;41.70;99.90;;;;;;5052091;28;20057;-82
2022/08/25 11:22:43;;;;;;;1999.90;999.90;;;41.80;99.90;;;;;;5048769;28;20051;-82
2022/08/25 11:25:28;;;;;;;1999.90;999.90;;;41.70;99.90;;;;;;5050196;28;20038;-84
2022/08/25 11:28:02;;;;;;;1999.90;999.90;;;40.50;99.90;;;;;;5048527;28;20056;-84
2022/08/25 11:30:28;;;;;;;1999.90;999.90;;;40.00;99.90;;;;;;5051205;28;20053;-86
2022/08/25 11:32:54;;;;;;;1999.90;999.90;;;40.50;99.90;;;;;;5049074;28;20060;-84
2022/08/25 11:35:40;;;;;;;1999.90;999.90;;;40.50;99.90;;;;;;5050715;28;20087;-82
2022/08/25 11:38:27;;;;;;;1999.90;999.90;;;40.90;99.90;;;;;;5045288;28;20080;-81
2022/08/25 11:41:17;;;;;;;1999.90;999.90;;;40.90;99.90;;;;;;5045599;28;20037;-81
2022/08/25 11:44:23;;;;;;;1999.90;999.90;;;41.30;99.90;;;;;;5049761;28;20120;-82
2022/08/25 11:46:59;;;;;;;1999.90;999.90;;;41.10;99.90;;;;;;5046064;28;20500;-81
2022/08/25 11:49:55;;;;;;;1999.90;999.90;;;41.10;99.90;;;;;;5032476;28;20049;-82
2022/08/25 11:52:30;;;;;;;1999.90;999.90;;;40.30;99.90;;;;;;5048338;28;20335;-82
2022/08/25 11:55:05;;;;;;;1999.90;999.90;;;40.10;99.90;;;;;;5047542;28;20151;-81
2022/08/25 11:57:31;;;;;;;1999.90;999.90;;;40.70;99.90;;;;;;5047480;28;20874;-82
2022/08/25 12:00:18;;;;;;;1999.90;999.90;;;41.30;99.90;;;;;;5031786;28;20069;-81
2022/08/25 12:02:50;;;;;;;1999.90;999.90;;;41.70;99.90;;;;;;5047328;28;20489;-82
2022/08/25 12:05:15;;;;;;;1999.90;999.90;;;41.30;99.90;;;;;;5048503;28;20041;-84
2022/08/25 12:11:05;;;;;;;1999.90;999.90;;;41.20;99.90;;;;;;5049853;28;20049;-83
2022/08/25 12:13:47;;;;;;;1999.90;999.90;;;40.30;99.90;;;;;;5051135;28;20052;-82
2022/08/25 12:16:41;;;;;;;1999.90;999.90;;;39.60;99.90;;;;;;5045639;28;20080;-82
2022/08/25 12:19:27;;;;;;;1999.90;999.90;;;39.60;99.90;;;;;;5031639;28;20061;-82
2022/08/25 12:22:00;;;;;;;1999.90;999.90;;;39.10;99.90;;;;;;5042249;28;20060;-82
2022/08/25 12:24:41;;;;;;;1999.90;999.90;;;38.00;99.90;;;;;;5052261;28;20041;-82
2022/08/25 12:27:31;;;;;;;1999.90;999.90;;;37.00;99.90;;;;;;5049670;28;20383;-82
2022/08/25 12:30:27;;;;;;;1999.90;999.90;;;36.50;99.90;;;;;;5051416;28;20131;-82
2022/08/25 12:33:12;;;;;;;1999.90;999.90;;;35.80;99.90;;;;;;5035602;28;20057;-83
2022/08/25 12:35:59;;;;;;;1999.90;999.90;;;35.30;99.90;;;;;;5047542;28;20131;-82